Time;durP1;ratioP1;P1;durP2;ratioP2;P2;SDS_P1;SDS_P2;PMS_P1;PMS_P2;Temp;Humidity;BMP_temperature;BMP_pressure;BME280_temperature;BME280_humidity;BME280_pressure;Samples;Min_cycle;Max_cycle;Signal;HPM_P1;HPM_P2
2023/09/02 00:01:40;;;;;;;6.13;1.90;;;20.80;62.00;;;;;;5094352;28;20202;-60
2023/09/02 00:04:09;;;;;;;6.22;2.10;;;20.80;61.90;;;;;;5094082;28;20234;-59
2023/09/02 00:06:36;;;;;;;5.68;1.80;;;20.80;61.90;;;;;;5094963;28;20194;-61
2023/09/02 00:09:03;;;;;;;6.28;1.58;;;20.80;62.00;;;;;;5094804;28;20205;-61
2023/09/02 00:11:30;;;;;;;7.82;2.00;;;20.80;61.90;;;;;;5094245;28;20187;-61
2023/09/02 00:13:59;;;;;;;5.63;1.92;;;20.80;61.90;;;;;;5094495;28;20186;-57
2023/09/02 00:16:26;;;;;;;6.78;1.75;;;20.80;61.90;;;;;;5094522;28;20190;-57
2023/09/02 00:18:53;;;;;;;5.10;2.10;;;20.80;62.00;;;;;;5094185;28;20190;-60
2023/09/02 00:21:21;;;;;;;5.05;1.60;;;20.80;62.00;;;;;;5093817;28;20186;-62
2023/09/02 00:24:03;;;;;;;5.32;1.58;;;20.80;62.00;;;;;;5094229;28;20280;-62
2023/09/02 00:26:31;;;;;;;4.00;1.80;;;20.80;62.10;;;;;;5092951;28;20201;-56
2023/09/02 00:29:01;;;;;;;10.82;1.70;;;20.80;62.20;;;;;;5094220;28;20186;-60
2023/09/02 00:31:30;;;;;;;6.65;2.42;;;20.70;62.10;;;;;;5094103;28;20190;-59
2023/09/02 00:33:57;;;;;;;5.47;1.95;;;20.70;62.20;;;;;;5093952;28;20211;-60
2023/09/02 00:36:24;;;;;;;7.13;2.10;;;20.80;62.30;;;;;;5093978;28;20186;-61
2023/09/02 00:38:51;;;;;;;10.52;2.05;;;20.80;62.40;;;;;;5094036;28;20197;-60
2023/09/02 00:41:26;;;;;;;9.80;2.22;;;20.70;62.40;;;;;;5093368;28;20198;-60
2023/09/02 00:43:56;;;;;;;6.25;1.90;;;20.80;62.70;;;;;;5093961;28;20254;-57
2023/09/02 00:49:47;;;;;;;7.28;2.42;;;20.70;62.80;;;;;;5093608;28;20170;-60
2023/09/02 00:52:14;;;;;;;5.70;2.28;;;20.70;62.90;;;;;;5093542;28;20287;-57
2023/09/02 00:54:42;;;;;;;4.60;2.05;;;20.70;62.90;;;;;;5093472;28;20190;-61
2023/09/02 00:57:09;;;;;;;4.13;1.98;;;20.70;63.80;;;;;;5093688;28;20190;-58
2023/09/02 00:59:37;;;;;;;6.28;2.40;;;20.70;63.80;;;;;;5093609;28;20243;-60
2023/09/02 01:02:06;;;;;;;7.10;2.15;;;20.70;63.00;;;;;;5093382;28;20220;-58
2023/09/02 01:04:34;;;;;;;8.00;2.05;;;20.70;63.00;;;;;;5093192;28;20230;-59
2023/09/02 01:07:04;;;;;;;6.13;1.85;;;20.70;63.00;;;;;;5093716;28;20277;-60
2023/09/02 01:09:32;;;;;;;4.97;2.10;;;20.70;63.00;;;;;;5093369;28;20241;-62
2023/09/02 01:11:59;;;;;;;6.97;1.88;;;20.70;63.00;;;;;;5093234;28;20346;-60
2023/09/02 01:14:27;;;;;;;6.53;2.05;;;20.70;63.00;;;;;;5093321;28;20187;-60
2023/09/02 01:16:54;;;;;;;7.55;1.95;;;20.70;63.00;;;;;;5093121;28;20266;-61
2023/09/02 01:19:22;;;;;;;7.55;2.53;;;20.70;63.10;;;;;;5093301;28;20190;-60
2023/09/02 01:22:14;;;;;;;3.92;2.10;;;20.60;63.10;;;;;;5093419;28;20251;-61
2023/09/02 01:24:56;;;;;;;7.30;1.80;;;20.70;63.20;;;;;;5083943;28;20198;-59
2023/09/02 01:27:30;;;;;;;7.45;2.17;;;20.70;63.40;;;;;;5093134;28;20189;-60
2023/09/02 01:30:05;;;;;;;4.28;1.98;;;20.60;63.20;;;;;;5093032;28;20244;-60
2023/09/02 01:32:35;;;;;;;5.80;1.77;;;20.70;63.50;;;;;;5092345;28;20221;-59
2023/09/02 01:35:06;;;;;;;7.40;2.00;;;20.70;63.50;;;;;;5092255;28;20276;-62
2023/09/02 01:37:34;;;;;;;7.40;2.25;;;20.70;63.50;;;;;;5092847;28;20186;-61
2023/09/02 01:40:04;;;;;;;3.88;1.73;;;20.70;63.60;;;;;;5092614;28;20190;-61
2023/09/02 01:42:34;;;;;;;5.50;1.90;;;20.70;63.70;;;;;;5092811;28;20281;-59
2023/09/02 01:45:02;;;;;;;5.50;1.75;;;20.70;63.70;;;;;;5092773;28;20182;-61
2023/09/02 01:47:30;;;;;;;6.40;1.95;;;20.60;63.70;;;;;;5092516;28;20193;-60
2023/09/02 01:49:59;;;;;;;9.35;2.53;;;20.70;63.80;;;;;;5092724;28;20193;-60
2023/09/02 01:52:27;;;;;;;6.22;1.80;;;20.70;63.90;;;;;;5092311;28;20255;-60
2023/09/02 01:54:55;;;;;;;11.60;2.05;;;20.70;63.90;;;;;;5092393;28;20185;-60
2023/09/02 01:57:22;;;;;;;7.63;2.03;;;20.70;64.00;;;;;;5092655;28;20193;-60
2023/09/02 01:59:51;;;;;;;6.35;2.00;;;20.70;64.00;;;;;;5092500;28;20261;-57
2023/09/02 02:02:18;;;;;;;7.00;1.95;;;20.70;64.10;;;;;;5092320;28;20190;-60
2023/09/02 02:04:51;;;;;;;5.53;2.28;;;20.70;64.20;;;;;;5092220;28;20221;-61
2023/09/02 02:07:23;;;;;;;10.50;2.20;;;20.70;64.30;;;;;;5092288;28;20282;-56
2023/09/02 02:09:54;;;;;;;8.90;2.33;;;20.60;64.20;;;;;;5092307;28;20190;-60
2023/09/02 02:12:22;;;;;;;5.38;2.00;;;20.60;64.30;;;;;;5092354;28;20246;-59
2023/09/02 02:14:53;;;;;;;6.20;1.83;;;20.60;64.40;;;;;;5092004;28;20198;-61
2023/09/02 02:17:22;;;;;;;6.18;2.00;;;20.60;64.40;;;;;;5092235;28;20273;-60
2023/09/02 02:19:49;;;;;;;7.50;2.40;;;20.20;75.10;;;;;;5092431;28;20435;-60
2023/09/02 02:22:17;;;;;;;8.40;2.10;;;20.60;64.40;;;;;;5092263;28;20233;-61
2023/09/02 02:24:44;;;;;;;5.95;1.90;;;20.60;64.50;;;;;;5092189;28;20186;-58
2023/09/02 02:27:13;;;;;;;5.75;2.03;;;20.60;64.60;;;;;;5092015;28;20642;-61
2023/09/02 02:29:40;;;;;;;6.38;2.03;;;20.60;64.60;;;;;;5078233;28;20282;-61
2023/09/02 02:32:09;;;;;;;9.30;2.30;;;20.60;64.70;;;;;;5087579;28;20206;-57
2023/09/02 02:34:36;;;;;;;7.35;2.03;;;20.60;64.70;;;;;;5092169;28;20189;-60
2023/09/02 02:37:03;;;;;;;8.20;1.73;;;20.60;64.70;;;;;;5091938;28;20280;-60
2023/09/02 02:39:30;;;;;;;9.43;2.08;;;20.60;64.80;;;;;;5091953;28;20194;-59
2023/09/02 02:41:57;;;;;;;4.10;2.30;;;20.60;64.80;;;;;;5091835;28;20733;-61
2023/09/02 02:44:25;;;;;;;5.65;2.45;;;20.60;64.90;;;;;;5092528;28;20277;-61
2023/09/02 02:46:52;;;;;;;7.97;2.50;;;20.50;64.80;;;;;;5096063;28;20243;-58
2023/09/02 02:49:21;;;;;;;7.75;2.17;;;20.60;65.00;;;;;;5096168;28;20273;-58
2023/09/02 02:51:48;;;;;;;3.97;1.83;;;20.60;65.00;;;;;;5095997;28;20264;-61
2023/09/02 02:54:15;;;;;;;6.80;2.22;;;20.60;65.10;;;;;;5095842;28;20218;-58
2023/09/02 02:56:43;;;;;;;6.35;1.70;;;20.60;65.10;;;;;;5095782;28;20220;-58
2023/09/02 02:59:10;;;;;;;3.78;1.63;;;20.60;65.10;;;;;;5095672;28;20729;-60
2023/09/02 03:01:37;;;;;;;4.32;1.92;;;20.60;65.10;;;;;;5095328;28;20224;-61
2023/09/02 03:04:05;;;;;;;6.63;1.95;;;20.60;65.10;;;;;;5095667;28;20225;-59
2023/09/02 03:06:34;;;;;;;8.80;2.33;;;20.60;65.90;;;;;;5095549;28;20201;-61
2023/09/02 03:09:02;;;;;;;6.53;1.92;;;20.50;65.10;;;;;;5095590;28;20194;-62
2023/09/02 03:11:29;;;;;;;5.45;2.03;;;20.60;65.20;;;;;;5095459;28;20273;-61
2023/09/02 03:13:58;;;;;;;7.68;1.95;;;20.60;65.20;;;;;;5095573;28;20292;-60
2023/09/02 03:16:26;;;;;;;10.18;2.10;;;20.60;65.30;;;;;;5095377;28;20230;-62
2023/09/02 03:18:54;;;;;;;5.75;1.95;;;20.60;65.30;;;;;;5095631;28;20248;-61
2023/09/02 03:21:21;;;;;;;7.80;2.10;;;20.60;65.30;;;;;;5095461;28;20186;-59
2023/09/02 03:23:49;;;;;;;7.15;2.20;;;20.60;66.10;;;;;;5094966;28;20277;-61
2023/09/02 03:26:17;;;;;;;8.20;2.10;;;20.60;65.40;;;;;;5095423;28;20269;-56
2023/09/02 03:28:45;;;;;;;11.63;2.03;;;20.60;65.40;;;;;;5095374;28;20191;-59
2023/09/02 03:33:53;;;;;;;9.30;1.80;;;20.60;65.50;;;;;;5072505;28;20226;-60
2023/09/02 03:36:21;;;;;;;4.15;1.70;;;20.60;65.50;;;;;;5072382;28;20285;-59
2023/09/02 03:38:49;;;;;;;5.18;1.80;;;20.50;65.40;;;;;;5072148;28;20187;-57
2023/09/02 03:41:18;;;;;;;5.55;2.10;;;20.60;65.50;;;;;;5072325;28;20194;-59
2023/09/02 03:43:45;;;;;;;6.68;2.30;;;20.60;65.60;;;;;;5072336;28;20252;-60
2023/09/02 03:46:13;;;;;;;5.38;2.03;;;20.60;65.60;;;;;;5072243;28;20238;-57
2023/09/02 03:48:41;;;;;;;4.22;2.13;;;20.60;65.60;;;;;;5072288;28;20197;-58
2023/09/02 03:51:16;;;;;;;3.92;2.03;;;20.60;65.60;;;;;;5072148;28;20191;-60
2023/09/02 03:53:43;;;;;;;4.32;1.67;;;20.60;65.70;;;;;;5071828;28;20230;-59
2023/09/02 03:56:36;;;;;;;5.80;2.10;;;20.50;65.60;;;;;;5071157;28;20191;-60
2023/09/02 03:59:04;;;;;;;5.00;2.20;;;20.60;65.80;;;;;;5086313;28;20202;-59
2023/09/02 04:01:34;;;;;;;2.90;1.90;;;20.50;65.70;;;;;;5094513;28;20256;-58
2023/09/02 04:04:01;;;;;;;6.05;2.15;;;20.60;65.80;;;;;;5094495;28;20279;-60
2023/09/02 04:06:28;;;;;;;5.05;2.08;;;20.60;65.70;;;;;;5094777;28;20198;-60
2023/09/02 04:08:55;;;;;;;4.93;1.77;;;20.60;65.70;;;;;;5094913;28;20198;-61
2023/09/02 04:11:23;;;;;;;4.60;1.90;;;20.50;65.60;;;;;;5094604;28;20197;-56
2023/09/02 04:13:51;;;;;;;6.60;2.03;;;20.50;65.60;;;;;;5094289;28;20217;-62
2023/09/02 04:16:19;;;;;;;8.10;2.10;;;20.50;65.60;;;;;;5094512;28;20190;-61
2023/09/02 04:18:46;;;;;;;5.53;2.03;;;20.50;65.60;;;;;;5094550;28;20194;-59
2023/09/02 04:21:13;;;;;;;2.70;1.80;;;20.50;65.60;;;;;;5094145;28;20189;-62
2023/09/02 04:23:41;;;;;;;6.03;2.30;;;20.50;65.60;;;;;;5094349;28;20194;-61
2023/09/02 04:26:08;;;;;;;6.45;2.28;;;20.50;65.50;;;;;;5094074;28;20193;-60
2023/09/02 04:28:36;;;;;;;7.22;2.45;;;20.50;65.50;;;;;;5093763;28;20742;-61
2023/09/02 04:31:05;;;;;;;3.25;2.28;;;20.50;65.60;;;;;;5094162;28;20539;-58
2023/09/02 04:33:32;;;;;;;9.55;2.45;;;20.50;65.50;;;;;;5093806;28;20767;-59
2023/09/02 04:36:01;;;;;;;5.18;2.00;;;20.50;65.60;;;;;;5093600;28;20194;-56
2023/09/02 04:38:29;;;;;;;5.45;2.13;;;20.50;65.60;;;;;;5093744;28;20696;-62
2023/09/02 04:41:06;;;;;;;;;;;;;;;;;;;;;
2023/09/02 04:43:34;;;;;;;6.50;2.25;;;20.50;65.60;;;;;;5093437;28;20205;-61
2023/09/02 04:46:02;;;;;;;5.95;2.13;;;20.50;65.70;;;;;;5093944;28;20186;-61
2023/09/02 04:48:31;;;;;;;6.07;2.10;;;20.50;65.60;;;;;;5093891;28;20190;-60
2023/09/02 04:51:03;;;;;;;7.22;1.90;;;20.50;65.70;;;;;;5093583;28;20190;-60
2023/09/02 04:53:31;;;;;;;5.50;2.03;;;20.50;65.80;;;;;;5093738;28;20249;-61
2023/09/02 04:58:39;;;;;;;6.70;2.25;;;20.50;65.90;;;;;;5092923;28;20213;-62
2023/09/02 05:01:10;;;;;;;7.38;2.78;;;20.50;66.00;;;;;;5093040;28;20239;-60
2023/09/02 05:03:39;;;;;;;5.95;2.13;;;20.50;66.00;;;;;;5093573;28;20193;-62
2023/09/02 05:06:10;;;;;;;7.13;2.40;;;20.50;66.00;;;;;;5093399;28;20190;-63
2023/09/02 05:08:37;;;;;;;7.53;2.00;;;20.50;66.10;;;;;;5093413;28;20269;-60
2023/09/02 05:11:04;;;;;;;6.60;2.40;;;20.50;66.20;;;;;;5093438;28;20186;-61
2023/09/02 05:13:32;;;;;;;9.10;2.53;;;20.40;66.10;;;;;;5092759;28;20781;-58
2023/09/02 05:15:59;;;;;;;5.65;2.42;;;20.50;66.30;;;;;;5093417;28;20213;-62
2023/09/02 05:18:26;;;;;;;5.85;2.38;;;20.40;66.30;;;;;;5093199;28;20190;-59
2023/09/02 05:20:58;;;;;;;6.00;2.60;;;20.50;66.40;;;;;;5093009;28;20190;-62
2023/09/02 05:23:25;;;;;;;6.43;2.17;;;20.50;66.50;;;;;;5092888;28;20225;-60
2023/09/02 05:25:56;;;;;;;7.43;2.20;;;20.50;66.40;;;;;;5093260;28;20190;-60
2023/09/02 05:28:24;;;;;;;8.98;2.90;;;20.50;66.40;;;;;;5092982;28;20186;-62
2023/09/02 05:30:51;;;;;;;6.93;2.60;;;20.50;66.50;;;;;;5092992;28;20186;-59
2023/09/02 05:33:19;;;;;;;6.72;2.50;;;20.40;66.40;;;;;;5093005;28;20390;-61
2023/09/02 05:35:46;;;;;;;6.72;2.20;;;20.40;66.40;;;;;;5092812;28;20186;-58
2023/09/02 05:38:14;;;;;;;8.30;2.53;;;20.40;66.40;;;;;;5093027;28;20190;-58
2023/09/02 05:40:42;;;;;;;8.30;2.33;;;20.50;66.50;;;;;;5092889;28;20604;-62
2023/09/02 05:43:10;;;;;;;5.72;2.15;;;20.40;66.40;;;;;;5092738;28;20196;-60
2023/09/02 05:45:37;;;;;;;5.15;2.47;;;20.40;66.40;;;;;;5092733;28;20198;-59
2023/09/02 05:48:05;;;;;;;7.88;2.45;;;20.40;66.40;;;;;;5092833;28;20182;-61
2023/09/02 05:50:33;;;;;;;8.15;2.20;;;20.40;66.40;;;;;;5092565;28;20214;-58
2023/09/02 05:53:00;;;;;;;5.88;2.20;;;20.40;66.40;;;;;;5092645;28;20186;-61
2023/09/02 05:55:29;;;;;;;6.55;2.50;;;20.40;66.40;;;;;;5092686;28;20218;-61
2023/09/02 05:57:56;;;;;;;5.28;2.25;;;20.40;66.40;;;;;;5092492;28;20383;-62
2023/09/02 06:00:23;;;;;;;5.80;2.17;;;20.40;66.40;;;;;;5092591;28;20273;-62
2023/09/02 06:02:51;;;;;;;6.55;2.10;;;20.40;66.40;;;;;;5092620;28;20196;-60
2023/09/02 06:05:24;;;;;;;7.82;2.08;;;20.40;66.40;;;;;;5092181;28;20225;-61
2023/09/02 06:07:51;;;;;;;5.40;2.10;;;20.50;66.50;;;;;;5092239;28;20282;-60
2023/09/02 06:10:18;;;;;;;5.53;2.00;;;20.40;67.20;;;;;;5092438;28;20190;-60
2023/09/02 06:12:47;;;;;;;5.03;2.05;;;20.40;66.40;;;;;;5092260;28;20196;-60
2023/09/02 06:15:17;;;;;;;6.90;2.03;;;20.30;66.30;;;;;;5092369;28;20221;-62
2023/09/02 06:17:45;;;;;;;4.97;1.83;;;20.40;66.50;;;;;;5092398;28;20274;-59
2023/09/02 06:20:15;;;;;;;4.68;1.75;;;20.40;66.50;;;;;;5091626;28;20190;-57
2023/09/02 06:22:42;;;;;;;5.68;1.73;;;20.40;66.50;;;;;;5092011;28;20240;-63
2023/09/02 06:25:10;;;;;;;5.75;1.98;;;20.40;66.70;;;;;;5092692;28;20194;-62
2023/09/02 06:27:37;;;;;;;5.20;2.05;;;20.40;66.70;;;;;;5092102;28;20194;-62
2023/09/02 06:30:07;;;;;;;4.72;1.80;;;20.40;66.70;;;;;;5092281;28;20189;-61
2023/09/02 06:32:34;;;;;;;7.25;2.33;;;20.40;66.80;;;;;;5091992;28;20562;-62
2023/09/02 06:35:02;;;;;;;7.38;2.13;;;20.40;66.90;;;;;;5091902;28;20217;-61
2023/09/02 06:37:29;;;;;;;4.95;1.95;;;20.40;67.00;;;;;;5092191;28;20190;-62
2023/09/02 06:39:56;;;;;;;7.72;1.92;;;20.40;67.00;;;;;;5091876;28;20674;-60
2023/09/02 06:42:24;;;;;;;5.60;1.85;;;20.40;67.10;;;;;;5091939;28;20197;-61
2023/09/02 06:44:54;;;;;;;6.20;2.17;;;20.40;67.20;;;;;;5092175;28;20190;-57
2023/09/02 06:47:23;;;;;;;6.07;2.08;;;20.40;67.30;;;;;;5092166;28;20201;-63
2023/09/02 06:49:51;;;;;;;7.40;2.28;;;20.30;67.20;;;;;;5091547;28;20190;-58
2023/09/02 06:52:18;;;;;;;11.63;2.35;;;20.40;67.30;;;;;;5092122;28;20186;-58
2023/09/02 06:54:48;;;;;;;7.82;2.50;;;20.40;67.40;;;;;;5092047;28;20225;-61
2023/09/02 06:57:15;;;;;;;5.45;2.40;;;20.40;68.20;;;;;;5091837;28;20190;-62
2023/09/02 06:59:43;;;;;;;6.63;2.58;;;20.40;67.60;;;;;;5091615;28;20194;-59
2023/09/02 07:02:10;;;;;;;12.80;2.35;;;20.40;67.60;;;;;;5092005;28;20191;-58
2023/09/02 07:04:38;;;;;;;7.43;2.65;;;20.40;67.60;;;;;;5091451;28;20234;-62
2023/09/02 07:07:05;;;;;;;12.35;2.80;;;20.40;67.60;;;;;;5091788;28;20206;-58
2023/09/02 07:09:33;;;;;;;7.65;2.47;;;20.40;67.70;;;;;;5091908;28;20273;-59
2023/09/02 07:12:00;;;;;;;7.10;2.72;;;20.40;67.70;;;;;;5091417;28;20701;-60
2023/09/02 07:14:27;;;;;;;6.97;2.38;;;20.40;67.80;;;;;;5091518;28;20218;-61
2023/09/02 07:16:54;;;;;;;8.85;2.47;;;20.40;67.90;;;;;;5091933;28;20604;-61
2023/09/02 07:19:22;;;;;;;7.63;2.53;;;20.40;68.00;;;;;;5091686;28;20251;-60
2023/09/02 07:21:50;;;;;;;7.53;2.55;;;20.40;68.00;;;;;;5091755;28;20182;-59
2023/09/02 07:24:17;;;;;;;7.97;2.53;;;20.40;68.10;;;;;;5091759;28;20201;-60
2023/09/02 07:26:44;;;;;;;10.07;2.92;;;20.40;68.10;;;;;;5091652;28;20247;-61
2023/09/02 07:29:12;;;;;;;6.38;2.70;;;20.40;68.20;;;;;;5091696;28;20186;-60
2023/09/02 07:31:40;;;;;;;6.93;2.90;;;20.40;69.10;;;;;;5092588;28;20185;-58
2023/09/02 07:34:07;;;;;;;9.40;3.20;;;20.40;68.30;;;;;;5095374;28;20218;-60
2023/09/02 07:36:35;;;;;;;5.55;2.53;;;20.40;68.20;;;;;;5095235;28;20197;-60
2023/09/02 07:39:22;;;;;;;7.40;3.10;;;20.40;68.40;;;;;;5095289;28;20269;-62
2023/09/02 07:41:50;;;;;;;12.25;3.90;;;20.40;68.50;;;;;;5095140;28;20194;-62
2023/09/02 07:44:17;;;;;;;9.45;2.95;;;20.40;68.40;;;;;;5094783;28;20186;-62
2023/09/02 07:46:45;;;;;;;8.07;3.13;;;20.40;68.40;;;;;;5095106;28;20255;-60
2023/09/02 07:49:12;;;;;;;7.35;2.85;;;20.40;68.40;;;;;;5094507;28;20193;-62
2023/09/02 07:51:39;;;;;;;11.10;2.72;;;20.40;68.40;;;;;;5094642;28;20193;-60
2023/09/02 07:54:06;;;;;;;8.10;3.17;;;20.40;68.50;;;;;;5094831;28;20273;-63
2023/09/02 07:56:35;;;;;;;7.00;2.95;;;20.40;68.50;;;;;;5094746;28;20193;-62
2023/09/02 07:59:05;;;;;;;7.50;2.85;;;20.40;68.60;;;;;;5094539;28;20277;-60
2023/09/02 08:01:32;;;;;;;7.05;2.95;;;20.40;68.60;;;;;;5094813;28;20194;-58
2023/09/02 08:04:00;;;;;;;15.63;3.20;;;20.40;68.60;;;;;;5094113;28;20244;-60
2023/09/02 08:06:27;;;;;;;6.95;2.72;;;20.40;68.70;;;;;;5094997;28;20266;-62
2023/09/02 08:08:54;;;;;;;15.07;3.90;;;20.40;68.70;;;;;;5094988;28;20194;-61
2023/09/02 08:11:21;;;;;;;8.68;3.20;;;20.40;68.70;;;;;;5094369;28;20326;-62
2023/09/02 08:13:50;;;;;;;8.15;3.75;;;20.40;68.70;;;;;;5094431;28;20190;-60
2023/09/02 08:16:17;;;;;;;8.05;3.25;;;20.40;68.70;;;;;;5094516;28;20301;-62
2023/09/02 08:18:44;;;;;;;7.40;3.03;;;20.40;68.80;;;;;;5094266;28;20265;-59
2023/09/02 08:21:12;;;;;;;9.68;3.00;;;20.40;68.80;;;;;;5094395;28;20186;-59
2023/09/02 08:23:39;;;;;;;6.55;2.80;;;20.40;68.80;;;;;;5094335;28;20197;-61
2023/09/02 08:26:10;;;;;;;6.85;2.90;;;20.40;68.90;;;;;;5094182;28;20217;-61
2023/09/02 08:28:37;;;;;;;10.63;2.42;;;20.40;68.90;;;;;;5094252;28;20204;-61
2023/09/02 08:31:06;;;;;;;4.03;2.20;;;20.40;68.90;;;;;;5093878;28;20649;-63
2023/09/02 08:33:35;;;;;;;12.35;2.65;;;20.40;68.90;;;;;;5094319;28;20198;-62
2023/09/02 08:36:03;;;;;;;7.05;2.10;;;20.40;69.00;;;;;;5094080;28;20271;-62
2023/09/02 08:38:30;;;;;;;8.23;2.20;;;20.40;69.00;;;;;;5093803;28;20197;-61
2023/09/02 08:41:00;;;;;;;7.88;2.03;;;20.40;69.10;;;;;;5093796;28;20200;-62
2023/09/02 08:43:28;;;;;;;3.75;1.85;;;20.40;69.20;;;;;;5093580;28;20190;-62
2023/09/02 08:45:58;;;;;;;5.90;2.10;;;20.40;69.10;;;;;;5094001;28;20186;-59
2023/09/02 08:48:26;;;;;;;5.15;1.70;;;20.40;69.20;;;;;;5093968;28;20182;-61
2023/09/02 08:50:55;;;;;;;5.60;1.73;;;20.40;69.20;;;;;;5093484;28;20183;-61
2023/09/02 08:53:26;;;;;;;4.60;2.25;;;20.40;69.20;;;;;;5093796;28;20190;-62
2023/09/02 08:55:54;;;;;;;6.78;1.80;;;20.50;69.30;;;;;;5093283;28;20218;-61
2023/09/02 08:58:28;;;;;;;4.80;1.75;;;20.50;69.30;;;;;;5093322;28;20193;-60
2023/09/02 09:03:40;;;;;;;3.63;1.88;;;20.50;69.40;;;;;;5093526;28;20211;-62
2023/09/02 09:06:11;;;;;;;8.50;1.58;;;20.40;69.30;;;;;;5093593;28;20186;-60
2023/09/02 09:08:38;;;;;;;8.50;2.00;;;20.50;69.40;;;;;;5093562;28;20194;-61
2023/09/02 09:11:08;;;;;;;4.20;1.55;;;20.50;69.30;;;;;;5093214;28;20186;-61
2023/09/02 09:13:37;;;;;;;5.13;2.15;;;20.50;69.30;;;;;;5093382;28;20277;-62
2023/09/02 09:16:06;;;;;;;5.43;1.67;;;20.50;69.40;;;;;;5093383;28;20225;-61
2023/09/02 09:18:34;;;;;;;4.72;1.77;;;20.50;69.30;;;;;;5093148;28;20198;-60
2023/09/02 09:21:02;;;;;;;5.22;1.70;;;20.50;69.30;;;;;;5093287;28;20190;-62
2023/09/02 09:23:29;;;;;;;4.30;1.60;;;20.50;69.10;;;;;;5093282;28;20190;-61
2023/09/02 09:25:58;;;;;;;6.10;1.48;;;20.50;69.10;;;;;;5092994;28;20190;-59
2023/09/02 09:28:25;;;;;;;7.30;1.40;;;20.50;69.00;;;;;;5092880;28;20239;-63
2023/09/02 09:30:52;;;;;;;4.70;1.58;;;20.50;68.90;;;;;;5092780;28;20186;-61
2023/09/02 09:33:20;;;;;;;3.03;1.27;;;20.50;68.80;;;;;;5092875;28;20190;-60
2023/09/02 09:35:47;;;;;;;5.03;1.30;;;20.50;68.80;;;;;;5092661;28;20308;-59
2023/09/02 09:38:17;;;;;;;2.83;1.60;;;20.50;68.80;;;;;;5092705;28;20273;-62
2023/09/02 09:40:44;;;;;;;9.80;2.42;;;20.50;68.80;;;;;;5092693;28;20416;-61
2023/09/02 09:43:23;;;;;;;7.70;2.35;;;20.50;68.80;;;;;;5092603;28;20197;-60
2023/09/02 09:45:53;;;;;;;3.75;1.58;;;20.50;68.80;;;;;;5092892;28;20190;-62
2023/09/02 09:48:20;;;;;;;4.93;1.55;;;20.50;68.80;;;;;;5092592;28;20499;-59
2023/09/02 09:50:47;;;;;;;5.60;1.92;;;20.50;68.80;;;;;;5092833;28;20186;-63
2023/09/02 09:53:16;;;;;;;3.05;1.30;;;20.50;68.70;;;;;;5092756;28;20205;-61
2023/09/02 09:55:44;;;;;;;3.97;1.30;;;20.50;68.70;;;;;;5091748;28;20218;-61
2023/09/02 09:58:11;;;;;;;3.47;1.48;;;20.50;68.70;;;;;;5092405;28;20186;-60
2023/09/02 10:00:38;;;;;;;4.13;1.30;;;20.50;68.60;;;;;;5092266;28;20193;-59
2023/09/02 10:03:06;;;;;;;4.47;1.58;;;20.50;68.60;;;;;;5092153;28;20541;-60
2023/09/02 10:05:34;;;;;;;3.67;1.40;;;20.50;68.60;;;;;;5092405;28;20236;-59
2023/09/02 10:08:03;;;;;;;6.07;1.38;;;20.50;68.60;;;;;;5092686;28;20194;-59
2023/09/02 10:10:33;;;;;;;4.38;1.65;;;20.50;68.70;;;;;;5092224;28;20185;-60
2023/09/02 10:13:01;;;;;;;4.03;1.40;;;20.50;68.60;;;;;;5092424;28;20186;-62
2023/09/02 10:15:30;;;;;;;2.83;1.35;;;20.50;68.60;;;;;;5092419;28;20221;-62
2023/09/02 10:17:59;;;;;;;4.32;2.10;;;20.50;68.50;;;;;;5092177;28;20218;-60
2023/09/02 10:27:35;;;;;;;6.97;1.80;;;20.50;68.50;;;;;;5092071;28;20621;-61
2023/09/02 10:30:08;;;;;;;2.33;1.30;;;20.50;68.60;;;;;;5092261;28;20193;-61
2023/09/02 10:32:41;;;;;;;8.05;1.42;;;20.50;68.60;;;;;;5092098;28;20273;-60
2023/09/02 10:35:14;;;;;;;6.43;1.27;;;20.50;68.50;;;;;;5092197;28;20221;-62
2023/09/02 10:37:48;;;;;;;3.38;1.40;;;20.50;68.30;;;;;;5092210;28;20217;-60
2023/09/02 10:40:21;;;;;;;3.55;1.20;;;20.50;68.10;;;;;;5091680;28;20186;-61
2023/09/02 10:42:51;;;;;;;5.65;1.38;;;20.50;67.90;;;;;;5091944;28;20202;-62
2023/09/02 10:45:19;;;;;;;5.53;1.73;;;20.50;67.90;;;;;;5091852;28;20281;-61
2023/09/02 10:47:47;;;;;;;5.95;1.80;;;20.50;67.90;;;;;;5091888;28;20217;-63
2023/09/02 10:50:17;;;;;;;3.22;1.30;;;20.50;67.90;;;;;;5092089;28;20182;-60
2023/09/02 10:52:44;;;;;;;2.47;1.25;;;20.50;68.00;;;;;;5092166;28;20186;-62
2023/09/02 10:55:12;;;;;;;5.43;1.23;;;20.50;67.90;;;;;;5091495;28;20748;-60
2023/09/02 10:57:54;;;;;;;5.03;1.40;;;20.50;67.80;;;;;;5092022;28;20190;-63
2023/09/02 11:00:25;;;;;;;3.00;1.35;;;20.50;67.70;;;;;;5091912;28;20194;-60
2023/09/02 11:02:54;;;;;;;3.90;1.70;;;20.50;67.50;;;;;;5091865;28;20187;-62
2023/09/02 11:05:22;;;;;;;4.43;1.42;;;20.50;67.60;;;;;;5092276;28;20241;-61
2023/09/02 11:07:50;;;;;;;3.97;1.40;;;20.60;67.70;;;;;;5095730;28;20285;-59
2023/09/02 11:10:18;;;;;;;4.15;1.50;;;20.50;67.50;;;;;;5095240;28;20263;-62
2023/09/02 11:13:06;;;;;;;11.40;1.77;;;20.60;67.60;;;;;;5095409;28;20197;-62
2023/09/02 11:15:36;;;;;;;5.50;1.20;;;20.50;67.70;;;;;;5095237;28;20766;-60
2023/09/02 11:18:33;;;;;;;7.18;2.03;;;20.50;67.70;;;;;;5095331;28;20272;-62
2023/09/02 11:21:01;;;;;;;10.10;1.20;;;20.50;67.60;;;;;;5095557;28;20186;-59
2023/09/02 11:23:28;;;;;;;7.35;1.35;;;20.50;67.60;;;;;;5095313;28;20190;-63
2023/09/02 11:26:04;;;;;;;3.53;1.15;;;20.50;67.50;;;;;;5095178;28;20190;-60
2023/09/02 11:28:32;;;;;;;13.43;1.45;;;20.50;67.70;;;;;;5095489;28;20185;-62
2023/09/02 11:31:09;;;;;;;5.07;1.45;;;20.50;67.70;;;;;;5094869;28;20481;-56
2023/09/02 11:33:38;;;;;;;2.45;1.00;;;20.50;67.70;;;;;;5095077;28;20189;-63
2023/09/02 11:36:07;;;;;;;2.10;1.20;;;20.50;67.90;;;;;;5095176;28;20214;-59
2023/09/02 11:38:35;;;;;;;6.80;1.40;;;20.50;68.00;;;;;;5095207;28;20202;-59
2023/09/02 11:41:03;;;;;;;1.60;1.10;;;20.50;68.20;;;;;;5095160;28;20197;-62
2023/09/02 11:43:32;;;;;;;2.38;1.20;;;20.50;68.10;;;;;;5095178;28;20189;-60
2023/09/02 11:46:01;;;;;;;10.57;1.40;;;20.50;68.30;;;;;;5094892;28;20208;-60
2023/09/02 11:51:34;;;;;;;5.18;1.20;;;20.50;68.50;;;;;;5052692;28;20205;-62
2023/09/02 11:54:02;;;;;;;4.13;1.10;;;20.50;68.60;;;;;;5094748;28;20189;-61
2023/09/02 11:56:30;;;;;;;2.22;1.15;;;20.50;69.40;;;;;;5094892;28;20214;-62
2023/09/02 11:58:57;;;;;;;5.22;1.50;;;20.60;69.00;;;;;;5094493;28;20196;-61
2023/09/02 12:01:24;;;;;;;10.68;1.67;;;20.50;69.10;;;;;;5094639;28;20186;-60
2023/09/02 12:03:53;;;;;;;3.67;1.30;;;20.50;69.00;;;;;;5094648;28;20273;-60
2023/09/02 12:06:20;;;;;;;4.18;1.50;;;20.60;69.10;;;;;;5094665;28;20187;-61
2023/09/02 12:08:50;;;;;;;6.53;1.70;;;20.60;69.00;;;;;;5094528;28;20198;-60
2023/09/02 12:11:17;;;;;;;4.05;1.60;;;20.50;69.10;;;;;;5094684;28;20186;-61
2023/09/02 12:13:44;;;;;;;4.85;1.67;;;20.50;69.00;;;;;;5094666;28;20183;-62
2023/09/02 12:16:16;;;;;;;13.88;2.40;;;20.60;69.00;;;;;;5094320;28;20359;-59
2023/09/02 12:18:45;;;;;;;5.32;1.52;;;20.50;69.00;;;;;;5093683;28;20248;-58
2023/09/02 12:21:14;;;;;;;3.75;1.52;;;20.60;69.20;;;;;;5094411;28;20186;-60
2023/09/02 12:23:41;;;;;;;4.72;1.45;;;20.50;69.80;;;;;;5094175;28;20182;-57
2023/09/02 12:26:09;;;;;;;5.72;1.70;;;20.60;70.00;;;;;;5093995;28;20269;-60
2023/09/02 12:28:37;;;;;;;3.15;1.13;;;20.60;69.20;;;;;;5094072;28;20243;-59
2023/09/02 12:31:08;;;;;;;2.85;1.42;;;20.60;69.10;;;;;;5093989;28;20232;-62
2023/09/02 12:34:14;;;;;;;4.82;1.70;;;20.60;69.90;;;;;;5094197;28;20435;-59
2023/09/02 12:36:43;;;;;;;3.17;1.33;;;20.60;70.00;;;;;;5085471;28;20805;-62
2023/09/02 12:39:22;;;;;;;7.30;1.60;;;20.60;69.20;;;;;;5093799;28;20194;-61
2023/09/02 12:41:50;;;;;;;3.17;1.27;;;20.60;69.40;;;;;;5094072;28;20226;-61
2023/09/02 12:44:20;;;;;;;10.32;1.60;;;20.50;69.30;;;;;;5093923;28;20193;-59
2023/09/02 12:46:47;;;;;;;8.68;1.63;;;20.60;69.50;;;;;;5093932;28;20254;-61
2023/09/02 12:49:15;;;;;;;5.80;1.58;;;20.50;69.60;;;;;;5093925;28;20213;-62
2023/09/02 12:51:44;;;;;;;2.33;1.10;;;20.60;69.40;;;;;;5093755;28;20186;-61
2023/09/02 12:54:12;;;;;;;3.67;1.42;;;20.60;69.40;;;;;;5093389;28;20182;-62
2023/09/02 12:56:40;;;;;;;6.45;1.33;;;20.60;69.50;;;;;;5093656;28;20222;-60
2023/09/02 12:59:08;;;;;;;5.60;1.73;;;20.60;69.50;;;;;;5093652;28;20190;-60
2023/09/02 13:01:35;;;;;;;10.65;1.73;;;20.60;69.50;;;;;;5093592;28;20186;-57
2023/09/02 13:04:03;;;;;;;6.03;1.75;;;20.60;69.50;;;;;;5093393;28;20226;-62
2023/09/02 13:06:31;;;;;;;4.80;1.30;;;20.60;69.30;;;;;;5093706;28;20230;-60
2023/09/02 13:09:00;;;;;;;2.58;1.17;;;20.60;69.20;;;;;;5093460;28;20205;-61
2023/09/02 13:11:42;;;;;;;4.63;1.33;;;20.60;69.10;;;;;;5093451;28;20200;-59
2023/09/02 13:14:19;;;;;;;5.32;1.33;;;20.60;69.10;;;;;;5093357;28;20297;-59
2023/09/02 13:16:46;;;;;;;3.97;1.45;;;20.60;69.00;;;;;;5093292;28;20214;-61
2023/09/02 13:19:13;;;;;;;2.65;1.40;;;20.60;69.10;;;;;;5093315;28;20216;-59